Time;durP1;ratioP1;P1;durP2;ratioP2;P2;SDS_P1;SDS_P2;PMS_P1;PMS_P2;Temp;Humidity;BMP_temperature;BMP_pressure;BME280_temperature;BME280_humidity;BME280_pressure;Samples;Min_cycle;Max_cycle;Signal;HPM_P1;HPM_P2
2021/03/11 00:00:35;;;;;;;38.92;16.57;;;;;;;-7.75;79.07;100274.26;1779610;80;20909;-83
2021/03/11 00:03:06;;;;;;;36.15;16.50;;;;;;;-7.76;79.12;100277.94;1778474;80;21830;-71
2021/03/11 00:05:38;;;;;;;39.53;16.12;;;;;;;-7.79;79.09;100277.46;1779803;80;20944;-72
2021/03/11 00:08:06;;;;;;;39.45;15.83;;;;;;;-7.83;79.13;100279.66;1779885;79;21405;-73
2021/03/11 00:10:34;;;;;;;38.55;16.10;;;;;;;-7.85;79.19;100277.67;1795555;79;21161;-71
2021/03/11 00:13:05;;;;;;;41.05;16.00;;;;;;;-7.86;79.27;100274.68;1803899;79;21385;-71
2021/03/11 00:15:33;;;;;;;36.50;15.32;;;;;;;-7.87;79.33;100281.02;1813025;78;20943;-70
2021/03/11 00:18:00;;;;;;;44.85;16.10;;;;;;;-7.91;79.27;100274.39;1813404;79;21474;-70
2021/03/11 00:20:28;;;;;;;45.75;15.85;;;;;;;-7.95;79.36;100269.59;1790127;79;21181;-69
2021/03/11 00:22:56;;;;;;;47.20;15.95;;;;;;;-7.97;79.39;100274.27;1805075;78;21614;-70
2021/03/11 00:25:28;;;;;;;40.73;16.62;;;;;;;-8.02;79.32;100270.30;1813431;79;21007;-71
2021/03/11 00:27:56;;;;;;;39.63;17.20;;;;;;;-8.05;79.33;100272.50;1813343;79;21098;-71
2021/03/11 00:30:24;;;;;;;37.33;16.07;;;;;;;-8.06;79.42;100277.00;1813190;79;21609;-75
2021/03/11 00:32:52;;;;;;;40.35;14.55;;;;;;;-8.06;79.48;100273.50;1813453;79;21180;-71
2021/03/11 00:35:20;;;;;;;44.48;16.60;;;;;;;-8.07;79.45;100274.51;1813433;78;20900;-72
2021/03/11 00:37:48;;;;;;;37.48;16.25;;;;;;;-8.10;79.45;100275.72;1813394;79;21565;-72
2021/03/11 00:40:19;;;;;;;32.17;15.20;;;;;;;-8.10;79.50;100270.89;1813395;79;20999;-74
2021/03/11 00:42:47;;;;;;;36.55;15.20;;;;;;;-8.12;79.43;100271.08;1813438;79;21146;-73
2021/03/11 00:45:15;;;;;;;38.70;15.32;;;;;;;-8.12;79.47;100273.73;1813415;79;22693;-72
2021/03/11 00:47:43;;;;;;;37.25;14.40;;;;;;;-8.12;79.53;100267.08;1813312;79;20939;-72
2021/03/11 00:50:18;;;;;;;32.88;14.47;;;;;;;-8.12;79.59;100271.58;1813252;78;20936;-73
2021/03/11 00:52:45;;;;;;;41.10;15.72;;;;;;;-8.13;79.61;100267.25;1813461;79;20995;-73
2021/03/11 00:55:15;;;;;;;34.98;14.03;;;;;;;-8.15;79.58;100260.77;1813507;79;21185;-72
2021/03/11 00:57:43;;;;;;;37.67;14.68;;;;;;;-8.16;79.57;100255.12;1813483;79;21175;-72
2021/03/11 01:00:19;;;;;;;35.23;14.87;;;;;;;-8.16;79.55;100255.62;1748664;81;20961;-71
2021/03/11 01:02:56;;;;;;;36.40;15.32;;;;;;;-8.17;79.50;100242.80;1890135;75;23239;-71
2021/03/11 01:05:29;;;;;;;36.10;14.80;;;;;;;-8.21;79.50;100247.33;1860929;77;20927;-72
2021/03/11 01:07:59;;;;;;;40.17;14.98;;;;;;;-8.21;79.54;100249.49;1861047;77;21178;-72
2021/03/11 01:10:26;;;;;;;43.08;15.30;;;;;;;-8.21;79.57;100244.16;1861103;77;21082;-71
2021/03/11 01:12:53;;;;;;;31.50;14.28;;;;;;;-8.21;79.52;100241.50;1861080;77;20908;-71
2021/03/11 01:15:21;;;;;;;29.57;14.18;;;;;;;-8.20;79.46;100237.83;1861022;77;20971;-71
2021/03/11 01:17:48;;;;;;;40.33;16.37;;;;;;;-8.20;79.55;100237.00;1859470;76;21390;-71
2021/03/11 01:20:19;;;;;;;35.52;15.28;;;;;;;-8.20;79.59;100233.01;1846901;77;21351;-70
2021/03/11 01:22:47;;;;;;;38.85;14.80;;;;;;;-8.22;79.55;100236.34;1839774;77;20962;-70
2021/03/11 01:25:14;;;;;;;36.17;14.70;;;;;;;-8.25;79.60;100232.20;1827319;78;20884;-70
2021/03/11 01:27:42;;;;;;;45.20;16.20;;;;;;;-8.25;79.68;100235.38;1855077;77;21101;-70
2021/03/11 01:30:13;;;;;;;39.50;15.15;;;;;;;-8.27;79.60;100237.38;1828648;77;20971;-71
2021/03/11 01:32:41;;;;;;;39.53;14.28;;;;;;;-8.30;79.64;100236.41;1861033;77;21333;-71
2021/03/11 01:35:09;;;;;;;38.42;15.93;;;;;;;-8.32;79.79;100236.08;1828010;77;21499;-72
2021/03/11 01:37:36;;;;;;;32.42;13.65;;;;;;;-8.32;79.76;100242.45;1844777;77;20935;-71
2021/03/11 01:40:06;;;;;;;40.15;14.43;;;;;;;-8.35;79.71;100239.63;1827263;78;21053;-71
2021/03/11 01:42:34;;;;;;;36.95;15.18;;;;;;;-8.38;79.66;100235.48;1841009;77;21092;-70
2021/03/11 01:45:04;;;;;;;28.92;12.70;;;;;;;-8.42;79.61;100244.00;1847245;77;21115;-70
2021/03/11 01:47:31;;;;;;;35.38;15.08;;;;;;;-8.46;79.57;100240.03;1847236;77;21528;-71
2021/03/11 01:50:01;;;;;;;33.30;14.85;;;;;;;-8.49;79.62;100238.55;1847241;77;21001;-71
2021/03/11 01:52:28;;;;;;;33.70;14.55;;;;;;;-8.50;79.71;100237.39;1847211;77;21667;-71
2021/03/11 01:54:55;;;;;;;44.67;13.83;;;;;;;-8.50;79.77;100235.56;1847286;77;20929;-71
2021/03/11 01:57:23;;;;;;;35.70;13.55;;;;;;;-8.49;79.79;100230.56;1847365;77;22117;-71
2021/03/11 01:59:51;;;;;;;36.77;14.25;;;;;;;-8.50;79.75;100234.23;1816882;77;21097;-71
2021/03/11 02:02:18;;;;;;;33.38;14.53;;;;;;;-8.52;79.69;100232.25;1848757;77;21014;-71
2021/03/11 02:04:46;;;;;;;40.25;15.48;;;;;;;-8.52;79.70;100235.41;1850171;77;21445;-71
2021/03/11 02:07:15;;;;;;;31.95;14.53;;;;;;;-8.53;79.63;100239.91;1850225;77;21465;-71
2021/03/11 02:09:43;;;;;;;36.90;15.25;;;;;;;-8.50;79.64;100238.73;1850189;77;21580;-71
2021/03/11 02:12:38;;;;;;;34.25;14.75;;;;;;;-8.49;79.68;100245.20;1850151;77;20966;-71
2021/03/11 02:15:27;;;;;;;35.00;14.73;;;;;;;-8.50;79.76;100241.39;1849445;77;20923;-71
2021/03/11 02:18:17;;;;;;;36.63;14.68;;;;;;;-8.51;79.87;100243.22;1849046;77;20930;-71
2021/03/11 02:21:07;;;;;;;42.38;16.05;;;;;;;-8.51;79.89;100245.05;1850985;76;21449;-71
2021/03/11 02:24:24;;;;;;;33.08;14.20;;;;;;;-8.52;79.89;100254.05;1851999;77;21193;-71
2021/03/11 02:27:36;;;;;;;37.35;16.25;;;;;;;-8.52;79.93;100258.04;1849537;77;21085;-70
2021/03/11 02:30:06;;;;;;;43.25;16.70;;;;;;;-8.56;79.82;100253.56;1849604;77;21033;-70
2021/03/11 02:32:36;;;;;;;40.85;16.02;;;;;;;-8.57;79.87;100248.41;1859510;77;20922;-70
2021/03/11 02:35:06;;;;;;;46.30;17.48;;;;;;;-8.61;79.83;100250.60;1861043;76;20903;-70
2021/03/11 02:37:48;;;;;;;51.73;17.80;;;;;;;-8.62;79.95;100256.92;1844544;77;21255;-70
2021/03/11 02:40:20;;;;;;;50.00;17.80;;;;;;;-8.60;79.99;100259.41;1861186;76;21029;-71
2021/03/11 02:42:48;;;;;;;45.00;17.62;;;;;;;-8.63;80.11;100255.27;1861052;76;21025;-71
2021/03/11 02:45:19;;;;;;;50.35;18.17;;;;;;;-8.62;79.99;100259.59;1861046;77;21028;-70
2021/03/11 02:47:46;;;;;;;41.28;16.55;;;;;;;-8.62;79.99;100261.42;1844825;77;21494;-71
2021/03/11 02:50:14;;;;;;;49.30;18.92;;;;;;;-8.64;80.16;100262.92;1860920;77;22037;-71
2021/03/11 02:52:41;;;;;;;44.10;16.90;;;;;;;-8.64;80.14;100256.27;1860897;77;21096;-71
2021/03/11 02:55:11;;;;;;;59.77;19.98;;;;;;;-8.64;80.19;100248.28;1842417;77;20918;-71
2021/03/11 02:57:39;;;;;;;53.42;20.30;;;;;;;-8.62;80.25;100252.11;1861019;77;21053;-71
2021/03/11 03:00:10;;;;;;;50.48;18.60;;;;;;;-8.61;80.26;100259.09;1860989;77;21037;-71
2021/03/11 03:02:41;;;;;;;55.17;19.95;;;;;;;-8.59;80.34;100255.25;1860981;77;21353;-70
2021/03/11 03:05:11;;;;;;;59.38;19.23;;;;;;;-8.56;80.38;100260.22;1847650;77;21116;-70
2021/03/11 03:07:42;;;;;;;52.08;18.85;;;;;;;-8.54;80.32;100266.20;1861186;77;21029;-70
2021/03/11 03:10:10;;;;;;;54.77;18.15;;;;;;;-8.52;80.36;100265.52;1861258;77;21033;-71
2021/03/11 03:12:38;;;;;;;49.50;17.30;;;;;;;-8.49;80.41;100267.01;1861245;76;20911;-70
2021/03/11 03:15:08;;;;;;;56.35;20.52;;;;;;;-8.48;80.33;100259.34;1861243;77;21372;-71
2021/03/11 03:17:36;;;;;;;53.02;18.25;;;;;;;-8.51;80.23;100259.20;1861152;76;21561;-71
2021/03/11 03:20:08;;;;;;;58.40;20.57;;;;;;;-8.52;80.28;100262.03;1847063;77;21449;-70
2021/03/11 03:22:36;;;;;;;58.63;22.27;;;;;;;-8.52;80.28;100258.04;1861201;76;20894;-71
2021/03/11 03:25:10;;;;;;;64.05;21.77;;;;;;;-8.51;80.22;100259.20;1861196;77;20918;-71
2021/03/11 03:27:38;;;;;;;60.70;21.52;;;;;;;-8.50;80.17;100256.86;1860909;76;21370;-71
2021/03/11 03:30:13;;;;;;;64.77;22.00;;;;;;;-8.49;80.16;100254.53;1861155;77;20922;-70
2021/03/11 03:32:40;;;;;;;54.55;21.42;;;;;;;-8.49;80.16;100257.69;1860780;76;21006;-70
2021/03/11 03:35:10;;;;;;;65.80;23.07;;;;;;;-8.48;80.12;100250.03;1861179;77;20899;-69
2021/03/11 03:37:38;;;;;;;61.28;22.15;;;;;;;-8.55;79.94;100250.41;1861245;77;20934;-69
2021/03/11 03:40:09;;;;;;;68.72;23.15;;;;;;;-8.56;79.97;100236.77;1861156;77;23646;-70
2021/03/11 03:42:45;;;;;;;47.45;16.40;;;;;;;-8.57;79.91;100241.77;1860764;76;20922;-69
2021/03/11 03:45:21;;;;;;;61.13;21.62;;;;;;;-8.57;79.96;100248.41;1846859;77;20966;-69
2021/03/11 03:47:48;;;;;;;52.90;21.12;;;;;;;-8.57;80.07;100251.08;1861292;77;20864;-70
2021/03/11 03:50:17;;;;;;;55.92;21.52;;;;;;;-8.58;80.11;100256.08;1861245;76;20855;-71
2021/03/11 03:52:45;;;;;;;57.78;21.30;;;;;;;-8.58;80.16;100260.90;1861191;76;22166;-70
2021/03/11 03:55:12;;;;;;;53.17;19.87;;;;;;;-8.61;80.10;100265.23;1861145;76;20939;-71
2021/03/11 03:57:45;;;;;;;51.18;20.23;;;;;;;-8.65;80.06;100267.92;1847004;77;20990;-70
2021/03/11 04:00:14;;;;;;;57.78;22.10;;;;;;;-8.68;80.12;100270.97;1861295;76;20986;-69
2021/03/11 04:02:42;;;;;;;59.75;20.35;;;;;;;-8.70;80.14;100271.14;1860723;76;20962;-69
2021/03/11 04:05:10;;;;;;;51.02;19.95;;;;;;;-8.70;80.13;100280.95;1860519;76;21361;-72
2021/03/11 04:07:37;;;;;;;56.25;19.73;;;;;;;-8.72;80.18;100279.80;1860597;77;20876;-70
2021/03/11 04:10:07;;;;;;;60.55;21.85;;;;;;;-8.74;80.20;100276.48;1855782;76;20982;-71
2021/03/11 04:12:34;;;;;;;56.37;20.72;;;;;;;-8.75;80.18;100277.48;1853192;76;21164;-70
2021/03/11 04:15:05;;;;;;;48.23;21.50;;;;;;;-8.76;80.15;100277.66;1832102;76;20957;-71
2021/03/11 04:17:33;;;;;;;51.73;19.50;;;;;;;-8.77;80.12;100275.49;1853160;77;21344;-71
2021/03/11 04:20:05;;;;;;;53.28;18.77;;;;;;;-8.77;80.12;100276.00;1855026;76;21132;-71
2021/03/11 04:22:33;;;;;;;54.45;20.00;;;;;;;-8.78;80.13;100279.66;1853190;77;20972;-71
2021/03/11 04:25:01;;;;;;;55.67;19.00;;;;;;;-8.77;80.25;100275.49;1852708;76;20975;-70
2021/03/11 04:27:28;;;;;;;74.55;24.05;;;;;;;-8.78;80.17;100273.00;1793699;79;21557;-70
2021/03/11 04:29:56;;;;;;;82.55;27.17;;;;;;;-8.79;80.20;100277.50;1813944;78;21320;-71
2021/03/11 04:32:23;;;;;;;72.95;26.02;;;;;;;-8.79;80.23;100273.51;1805904;79;21949;-79
2021/03/11 04:34:51;;;;;;;60.10;21.23;;;;;;;-8.77;80.17;100276.83;1822072;78;20977;-70
2021/03/11 04:37:19;;;;;;;57.65;20.30;;;;;;;-8.74;80.09;100269.00;1806422;79;21026;-71
2021/03/11 04:39:46;;;;;;;68.35;23.25;;;;;;;-8.74;80.09;100268.49;1822179;78;20911;-71
2021/03/11 04:42:14;;;;;;;95.72;28.67;;;;;;;-8.76;80.17;100267.84;1805842;79;21406;-71
2021/03/11 04:44:43;;;;;;;83.27;24.82;;;;;;;-8.75;80.36;100272.16;1789767;80;20982;-72
2021/03/11 04:47:12;;;;;;;75.60;24.20;;;;;;;-8.71;80.60;100276.13;1774321;79;20959;-70
2021/03/11 04:49:40;;;;;;;65.85;21.42;;;;;;;-8.67;80.75;100278.78;1774660;80;21010;-72
2021/03/11 04:52:09;;;;;;;54.38;20.20;;;;;;;-8.59;80.90;100278.38;1790446;78;21469;-71
2021/03/11 04:54:38;;;;;;;63.15;21.87;;;;;;;-8.52;81.00;100276.67;1812494;78;21497;-71
2021/03/11 04:57:07;;;;;;;52.53;21.12;;;;;;;-8.46;81.09;100276.81;1800558;78;21509;-73
2021/03/11 04:59:36;;;;;;;49.25;18.98;;;;;;;-8.38;81.25;100265.28;1800528;78;21465;-71
2021/03/11 05:02:06;;;;;;;47.78;18.23;;;;;;;-8.27;81.37;100273.34;1792921;79;21056;-73
2021/03/11 05:04:34;;;;;;;50.23;17.60;;;;;;;-8.17;81.80;100271.28;1826697;77;21002;-70
2021/03/11 05:07:01;;;;;;;50.03;16.73;;;;;;;-8.03;82.41;100267.31;1792968;80;21781;-71
2021/03/11 05:09:30;;;;;;;36.30;16.12;;;;;;;-7.86;82.96;100281.34;1792865;80;21040;-74
2021/03/11 05:11:57;;;;;;;37.67;15.83;;;;;;;-7.69;83.37;100272.72;1792953;80;20930;-78
2021/03/11 05:14:25;;;;;;;29.90;13.20;;;;;;;-7.52;83.45;100279.56;1792798;80;20959;-77
2021/03/11 05:16:52;;;;;;;30.65;12.95;;;;;;;-7.39;83.38;100280.24;1792912;80;20975;-81
2021/03/11 05:19:20;;;;;;;34.38;14.40;;;;;;;-7.29;83.27;100282.14;1792908;80;21389;-72
2021/03/11 05:21:48;;;;;;;39.45;14.28;;;;;;;-7.18;83.20;100284.36;1792831;80;20928;-74
2021/03/11 05:24:15;;;;;;;38.15;14.45;;;;;;;-7.09;83.00;100281.94;1792886;80;20936;-73
2021/03/11 05:26:43;;;;;;;29.72;14.20;;;;;;;-7.00;82.82;100283.50;1792885;80;21642;-74
2021/03/11 05:29:12;;;;;;;38.98;15.38;;;;;;;-6.91;82.73;100285.55;1792865;80;21149;-73
2021/03/11 05:31:40;;;;;;;31.57;13.22;;;;;;;-6.82;82.59;100287.61;1792881;80;21427;-73
2021/03/11 05:34:08;;;;;;;28.57;12.82;;;;;;;-6.73;82.46;100287.84;1792910;80;21478;-76
2021/03/11 05:36:37;;;;;;;42.33;13.80;;;;;;;-6.66;82.17;100286.08;1792841;80;20924;-74
2021/03/11 05:39:07;;;;;;;34.18;13.15;;;;;;;-6.56;82.10;100289.80;1792865;80;21016;-74
2021/03/11 05:41:38;;;;;;;35.68;14.20;;;;;;;-6.48;81.81;100294.53;1766753;80;21055;-74
2021/03/11 05:44:07;;;;;;;;;;;;;;;-6.40;81.20;100297.09;1804958;78;21374;-74
2021/03/11 05:46:40;;;;;;;38.92;15.40;;;;;;;-6.33;80.81;100302.48;1823484;78;20133;-73
2021/03/11 05:49:08;;;;;;;37.85;14.47;;;;;;;-6.25;81.29;100297.53;1846032;77;20939;-74
2021/03/11 05:51:37;;;;;;;55.33;19.37;;;;;;;-6.16;80.41;100300.42;1812880;79;21139;-74
2021/03/11 05:54:06;;;;;;;57.60;20.60;;;;;;;-6.10;79.82;100305.84;1805804;79;21378;-76
2021/03/11 05:56:34;;;;;;;57.75;19.75;;;;;;;-6.02;79.54;100305.72;1788904;80;21131;-75
2021/03/11 05:59:01;;;;;;;45.48;19.00;;;;;;;-5.94;78.78;100303.44;1740032;79;21158;-75
2021/03/11 06:01:30;;;;;;;49.55;20.77;;;;;;;-5.89;78.60;100309.55;1803169;79;21135;-74
2021/03/11 06:03:58;;;;;;;47.08;20.37;;;;;;;-5.80;78.92;100299.84;1788008;80;20949;-74
2021/03/11 06:06:26;;;;;;;43.20;18.32;;;;;;;-5.67;78.68;100303.95;1788163;80;20926;-74
2021/03/11 06:08:53;;;;;;;34.50;16.45;;;;;;;-5.54;78.30;100298.40;1788091;80;21760;-78
2021/03/11 06:11:24;;;;;;;42.70;16.87;;;;;;;-5.46;77.42;100300.42;1788032;80;20997;-74
2021/03/11 06:13:51;;;;;;;37.78;16.40;;;;;;;-5.37;76.51;100305.13;1793550;79;21096;-72
2021/03/11 06:16:23;;;;;;;38.10;14.65;;;;;;;-5.26;76.36;100305.11;1806495;79;21073;-72
2021/03/11 06:18:51;;;;;;;35.40;16.17;;;;;;;-5.16;76.53;100311.75;1799618;79;21169;-72
2021/03/11 06:21:19;;;;;;;28.95;13.30;;;;;;;-5.02;75.83;100311.33;1797631;79;21641;-73
2021/03/11 06:23:46;;;;;;;26.87;13.15;;;;;;;-4.88;75.08;100310.91;1804995;79;21459;-75
2021/03/11 06:26:14;;;;;;;31.42;13.58;;;;;;;-4.77;73.95;100311.70;1804541;78;21160;-74
2021/03/11 06:28:48;;;;;;;31.25;11.90;;;;;;;-4.66;72.80;100313.83;1805630;79;21140;-74
2021/03/11 06:31:29;;;;;;;29.80;12.30;;;;;;;-4.59;71.03;100311.14;1806151;79;21579;-73
2021/03/11 06:33:58;;;;;;;22.82;9.73;;;;;;;-4.55;70.81;100312.41;1839263;78;22026;-73
2021/03/11 06:36:30;;;;;;;22.17;10.35;;;;;;;-4.49;69.60;100318.31;1806354;79;21505;-72
2021/03/11 06:38:58;;;;;;;24.63;10.23;;;;;;;-4.44;69.57;100316.69;1822429;78;20940;-73
2021/03/11 06:41:44;;;;;;;23.10;9.80;;;;;;;-4.34;69.89;100320.34;1806430;79;21211;-73
2021/03/11 06:44:11;;;;;;;18.85;10.00;;;;;;;-4.19;70.67;100317.52;1822324;78;20978;-73
2021/03/11 06:46:58;;;;;;;26.48;10.80;;;;;;;-3.98;69.70;100324.05;1822291;78;21374;-71
2021/03/11 06:49:27;;;;;;;21.62;10.95;;;;;;;-3.84;68.83;100312.84;1777770;79;20973;-72
2021/03/11 06:52:14;;;;;;;24.57;9.30;;;;;;;-3.69;66.86;100318.34;1822224;78;20922;-73
2021/03/11 06:55:09;;;;;;;25.40;9.30;;;;;;;-3.60;65.70;100319.48;1806713;79;21533;-73
2021/03/11 06:57:41;;;;;;;21.48;9.88;;;;;;;-3.54;63.60;100327.55;1839564;78;20872;-72
2021/03/11 07:00:20;;;;;;;23.92;9.88;;;;;;;-3.50;64.52;100323.94;1806669;79;21207;-72
2021/03/11 07:02:57;;;;;;;26.45;10.58;;;;;;;-3.39;63.62;100325.98;1806805;79;21494;-71
2021/03/11 07:05:26;;;;;;;23.00;10.00;;;;;;;-3.30;63.49;100332.80;1821521;78;20926;-71
2021/03/11 07:08:07;;;;;;;20.80;9.20;;;;;;;-3.16;63.72;100335.80;1809678;79;20946;-71
2021/03/11 07:10:36;;;;;;;24.23;9.13;;;;;;;-3.01;63.38;100336.93;1822154;78;21065;-71
2021/03/11 07:13:04;;;;;;;22.27;9.13;;;;;;;-2.78;62.65;100335.12;1809654;79;21465;-72
2021/03/11 07:15:34;;;;;;;19.00;9.28;;;;;;;-2.40;60.88;100333.89;1842809;77;21124;-72
2021/03/11 07:18:06;;;;;;;19.07;8.30;;;;;;;-1.96;59.31;100336.27;1809684;79;20978;-72
2021/03/11 07:20:34;;;;;;;13.63;7.83;;;;;;;-1.56;57.08;100339.02;1808834;79;21014;-72
2021/03/11 07:23:11;;;;;;;19.98;9.38;;;;;;;-1.18;55.88;100344.86;1809589;79;21129;-72
2021/03/11 07:25:46;;;;;;;16.85;7.53;;;;;;;-0.82;57.66;100341.41;1809695;79;21241;-73
2021/03/11 07:28:28;;;;;;;21.87;8.10;;;;;;;-0.38;55.00;100350.57;1809707;79;21104;-73
2021/03/11 07:30:59;;;;;;;20.02;7.90;;;;;;;-0.07;55.36;100347.42;1805770;79;20895;-73
2021/03/11 07:33:28;;;;;;;30.88;11.00;;;;;;;0.22;52.01;100349.30;1809606;79;20939;-73
2021/03/11 07:35:58;;;;;;;18.70;8.00;;;;;;;0.36;51.77;100358.04;1822383;78;21453;-73
2021/03/11 07:38:29;;;;;;;18.75;6.53;;;;;;;0.48;48.07;100354.03;1809641;79;21371;-73
2021/03/11 07:40:59;;;;;;;15.78;7.22;;;;;;;0.32;47.36;100349.57;1842783;77;21510;-72
2021/03/11 07:43:28;;;;;;;14.35;6.70;;;;;;;0.26;48.93;100340.21;1809612;79;20923;-73
2021/03/11 07:46:01;;;;;;;14.30;6.55;;;;;;;0.35;47.92;100342.06;1809576;79;21473;-73
2021/03/11 07:48:28;;;;;;;;;;;;;;;0.44;48.48;100344.74;1812376;79;21084;-71
2021/03/11 07:50:56;;;;;;;17.65;8.00;;;;;;;0.63;49.31;100340.37;1795574;79;21364;-66
2021/03/11 07:53:26;;;;;;;11.65;6.53;;;;;;;0.74;47.73;100334.69;1773919;79;20998;-70
2021/03/11 07:55:55;;;;;;;17.77;8.50;;;;;;;0.89;46.85;100338.30;1797518;79;21057;-71
2021/03/11 07:58:24;;;;;;;12.40;5.05;;;;;;;0.81;45.49;100331.88;1797155;79;21060;-72
2021/03/11 08:00:51;;;;;;;9.10;5.00;;;;;;;0.52;44.77;100334.44;1794859;79;21168;-71
2021/03/11 08:03:26;;;;;;;12.63;5.45;;;;;;;0.36;46.21;100332.91;1799352;79;21438;-71
2021/03/11 08:05:54;;;;;;;10.28;4.75;;;;;;;0.44;46.20;100326.66;1791092;78;21568;-71
2021/03/11 08:08:29;;;;;;;18.45;5.58;;;;;;;0.67;47.67;100315.05;1794087;78;21017;-72
2021/03/11 08:11:00;;;;;;;12.70;6.10;;;;;;;0.83;44.93;100322.48;1790798;78;21040;-73
2021/03/11 08:13:36;;;;;;;11.65;5.83;;;;;;;0.66;46.00;100326.92;1788188;78;21128;-73
2021/03/11 08:16:18;;;;;;;8.73;4.90;;;;;;;0.62;45.54;100322.50;1789498;80;21424;-73
2021/03/11 08:18:48;;;;;;;10.68;5.15;;;;;;;0.69;45.97;100309.42;1785538;80;21069;-73
2021/03/11 08:21:31;;;;;;;10.82;5.45;;;;;;;0.74;45.31;100314.95;1789796;80;20934;-73
2021/03/11 08:23:58;;;;;;;14.80;6.22;;;;;;;0.70;43.89;100316.47;1792108;80;20927;-73
2021/03/11 08:26:41;;;;;;;11.68;5.50;;;;;;;0.63;45.52;100302.53;1774552;80;21478;-72
2021/03/11 08:29:22;;;;;;;12.75;5.62;;;;;;;0.77;43.77;100305.84;1789511;79;21621;-73
2021/03/11 08:31:50;;;;;;;12.55;5.97;;;;;;;0.87;43.05;100310.16;1792039;79;21085;-74
2021/03/11 08:34:36;;;;;;;11.88;5.97;;;;;;;0.78;43.58;100306.14;1792072;79;21010;-73
2021/03/11 08:37:21;;;;;;;11.63;5.58;;;;;;;0.75;44.05;100312.55;1810405;78;21143;-72
2021/03/11 08:39:49;;;;;;;11.70;6.28;;;;;;;0.75;41.89;100307.14;1821792;78;21049;-75
2021/03/11 08:42:45;;;;;;;13.53;5.67;;;;;;;0.77;41.40;100306.38;1795686;79;21197;-80
2021/03/11 08:45:37;;;;;;;23.10;7.35;;;;;;;0.86;40.84;100313.91;1794066;80;21096;-72
2021/03/11 08:48:16;;;;;;;21.10;7.60;;;;;;;0.96;41.58;100317.39;1795840;79;21624;-73
2021/03/11 08:50:46;;;;;;;19.20;7.22;;;;;;;1.15;42.86;100308.11;1795932;79;22300;-73
2021/03/11 08:53:39;;;;;;;13.85;7.10;;;;;;;1.25;40.57;100311.02;1812283;79;21105;-73
2021/03/11 08:56:22;;;;;;;17.85;8.43;;;;;;;1.46;41.54;100315.01;1787147;77;21376;-73
2021/03/11 08:59:12;;;;;;;29.72;11.00;;;;;;;1.70;40.25;100315.80;1775383;80;21057;-71
2021/03/11 09:01:54;;;;;;;19.70;9.60;;;;;;;1.39;40.88;100313.48;1792642;80;21021;-72
2021/03/11 09:04:37;;;;;;;16.75;7.85;;;;;;;1.18;42.44;100312.20;1775990;80;21129;-73
2021/03/11 09:07:11;;;;;;;16.73;8.35;;;;;;;1.00;41.84;100311.81;1789493;80;21057;-72
2021/03/11 09:09:51;;;;;;;21.80;8.80;;;;;;;1.03;42.25;100305.11;1789543;80;21200;-72
2021/03/11 09:12:36;;;;;;;20.80;8.45;;;;;;;1.22;43.29;100311.49;1789643;79;29620;-73
2021/03/11 09:15:08;;;;;;;22.25;9.33;;;;;;;1.48;42.27;100320.18;1788491;80;21130;-74
2021/03/11 09:17:37;;;;;;;16.73;8.90;;;;;;;1.63;41.59;100315.10;1791266;80;21137;-73
2021/03/11 09:20:16;;;;;;;16.70;8.15;;;;;;;1.79;42.80;100307.56;1794738;80;21168;-74
2021/03/11 09:22:50;;;;;;;18.05;8.38;;;;;;;2.05;40.75;100313.49;1790104;79;21187;-72
2021/03/11 09:25:24;;;;;;;18.87;8.55;;;;;;;2.20;39.42;100319.20;1791631;79;21496;-69
2021/03/11 09:28:07;;;;;;;20.27;8.03;;;;;;;2.03;40.15;100320.50;1787970;79;21583;-72
2021/03/11 09:30:37;;;;;;;21.80;8.70;;;;;;;1.79;40.00;100318.39;1794783;79;21033;-71
2021/03/11 09:33:17;;;;;;;28.92;11.03;;;;;;;1.89;41.53;100321.31;1795188;79;21058;-72
2021/03/11 09:35:48;;;;;;;13.65;7.17;;;;;;;2.03;40.87;100315.09;1789721;79;20942;-78
2021/03/11 09:38:23;;;;;;;19.95;8.88;;;;;;;2.13;40.84;100309.05;1783663;80;21093;-78
2021/03/11 09:40:53;;;;;;;15.85;7.95;;;;;;;2.10;41.02;100313.06;1784297;78;21684;-73
2021/03/11 09:43:28;;;;;;;16.35;7.87;;;;;;;1.88;40.41;100306.13;1792064;80;21220;-74
2021/03/11 09:46:02;;;;;;;18.20;6.75;;;;;;;2.18;40.25;100314.56;1778985;78;21073;-72
2021/03/11 09:48:40;;;;;;;22.13;7.50;;;;;;;2.49;39.16;100303.19;1779614;80;22289;-79
2021/03/11 09:51:13;;;;;;;18.57;6.72;;;;;;;2.61;39.66;100306.66;1794283;79;20910;-74
2021/03/11 09:53:55;;;;;;;20.27;7.05;;;;;;;2.90;37.94;100306.56;1800385;78;21092;-77
2021/03/11 09:56:25;;;;;;;21.42;6.15;;;;;;;3.03;36.01;100317.63;1822202;78;21104;-75
2021/03/11 09:58:58;;;;;;;30.35;8.78;;;;;;;2.68;35.16;100315.17;1854806;77;21537;-81
2021/03/11 10:01:43;;;;;;;13.05;6.58;;;;;;;2.22;36.56;100310.30;1812819;78;21433;-72
2021/03/11 10:04:28;;;;;;;12.95;6.58;;;;;;;2.24;37.48;100305.47;1789380;80;21120;-70
2021/03/11 10:07:00;;;;;;;13.93;6.28;;;;;;;2.57;36.20;100300.08;1789697;80;21041;-68
2021/03/11 10:09:42;;;;;;;20.50;6.45;;;;;;;2.59;35.66;100294.42;1791577;78;21057;-71
2021/03/11 10:12:12;;;;;;;22.17;7.33;;;;;;;2.50;36.26;100292.64;1763416;78;21525;-70
2021/03/11 10:14:43;;;;;;;9.88;6.45;;;;;;;2.52;36.31;100294.58;1790402;80;21042;-75
2021/03/11 10:17:18;;;;;;;16.50;7.45;;;;;;;2.71;36.75;100291.64;1782331;80;21139;-74
2021/03/11 10:19:46;;;;;;;15.20;7.50;;;;;;;2.99;36.53;100277.96;1788431;79;20927;-73
2021/03/11 10:22:19;;;;;;;15.58;6.33;;;;;;;3.08;37.33;100284.61;1794645;80;21084;-71
2021/03/11 10:24:51;;;;;;;12.20;6.85;;;;;;;3.06;35.73;100278.61;1794874;80;20990;-68
2021/03/11 10:27:32;;;;;;;25.40;8.30;;;;;;;3.23;36.21;100278.59;1795117;80;21552;-70
2021/03/11 10:30:10;;;;;;;18.70;7.42;;;;;;;3.61;35.72;100273.66;1794846;80;21140;-68
2021/03/11 10:32:40;;;;;;;17.35;7.37;;;;;;;3.74;34.57;100277.35;1794993;79;20919;-68
2021/03/11 10:35:10;;;;;;;35.83;8.63;;;;;;;3.59;34.76;100274.44;1794907;79;21136;-68
2021/03/11 10:37:41;;;;;;;38.75;9.68;;;;;;;3.62;35.09;100276.12;1794998;80;21493;-70
2021/03/11 10:40:15;;;;;;;18.17;6.97;;;;;;;3.81;34.57;100266.30;1791794;79;22296;-70
2021/03/11 10:42:46;;;;;;;18.23;6.42;;;;;;;3.93;34.68;100272.42;1753934;80;21136;-69
2021/03/11 10:45:17;;;;;;;12.58;6.35;;;;;;;3.94;34.68;100269.45;1783754;80;21192;-70
2021/03/11 10:48:01;;;;;;;21.87;7.22;;;;;;;3.79;33.52;100278.77;1784298;79;21509;-70
2021/03/11 10:50:31;;;;;;;22.13;6.35;;;;;;;3.64;33.95;100269.90;1774580;80;21103;-69
2021/03/11 10:52:58;;;;;;;22.30;7.17;;;;;;;3.55;33.83;100277.37;1789726;80;21405;-69
2021/03/11 10:55:36;;;;;;;28.15;8.88;;;;;;;3.45;35.30;100261.80;1774647;80;20899;-69
2021/03/11 10:58:05;;;;;;;21.12;7.03;;;;;;;3.53;34.96;100253.73;1789709;80;21152;-70
2021/03/11 11:00:35;;;;;;;19.48;6.60;;;;;;;3.84;34.57;100256.28;1780521;79;21112;-68
2021/03/11 11:03:05;;;;;;;19.25;7.45;;;;;;;4.01;32.42;100258.38;1805785;79;21199;-70
2021/03/11 11:05:33;;;;;;;14.63;6.95;;;;;;;3.84;32.70;100247.60;1808604;79;22277;-68
2021/03/11 11:08:02;;;;;;;12.07;5.60;;;;;;;3.76;32.83;100250.77;1808988;79;20995;-69
2021/03/11 11:10:32;;;;;;;18.30;7.85;;;;;;;3.44;31.97;100241.70;1783237;79;21518;-68
2021/03/11 11:13:01;;;;;;;11.63;5.28;;;;;;;3.27;33.55;100230.89;1809474;79;21176;-69
2021/03/11 11:15:31;;;;;;;23.98;8.00;;;;;;;3.33;32.69;100232.59;1809542;79;21472;-69
2021/03/11 11:17:58;;;;;;;23.05;7.65;;;;;;;3.35;33.79;100221.49;1809488;79;21357;-68
2021/03/11 11:20:29;;;;;;;25.77;7.97;;;;;;;3.48;33.10;100219.73;1809299;79;21200;-69
2021/03/11 11:22:57;;;;;;;21.85;6.20;;;;;;;3.63;34.41;100221.28;1809397;79;21092;-68
2021/03/11 11:25:25;;;;;;;15.85;5.87;;;;;;;3.94;33.44;100222.45;1809422;79;21479;-69
2021/03/11 11:27:52;;;;;;;23.50;7.05;;;;;;;4.11;32.11;100231.83;1811290;77;21144;-69
2021/03/11 11:30:22;;;;;;;10.55;5.65;;;;;;;4.05;31.96;100217.91;1809205;79;21888;-69
2021/03/11 11:32:51;;;;;;;12.65;5.75;;;;;;;4.04;31.10;100213.58;1808971;79;21045;-69
2021/03/11 11:35:21;;;;;;;12.13;5.00;;;;;;;4.09;32.49;100204.91;1808173;79;20986;-68
2021/03/11 11:37:51;;;;;;;30.60;8.48;;;;;;;4.09;32.49;100204.91;1824848;77;21057;-69